Time;durP1;ratioP1;P1;durP2;ratioP2;P2;SDS_P1;SDS_P2;PMS_P1;PMS_P2;Temp;Humidity;BMP_temperature;BMP_pressure;BME280_temperature;BME280_humidity;BME280_pressure;Samples;Min_cycle;Max_cycle;Signal;HPM_P1;HPM_P2
2022/04/17 00:00:18;;;;;;;0.10;0.10;;;4.90;99.90;;;;;;5000161;28;20698;-68
2022/04/17 00:02:46;;;;;;;0.20;0.20;;;4.90;99.90;;;;;;5003491;28;20638;-69
2022/04/17 00:05:13;;;;;;;0.10;0.10;;;4.90;99.90;;;;;;5002764;28;20610;-68
2022/04/17 00:07:40;;;;;;;0.10;0.10;;;4.80;99.90;;;;;;5002224;28;20742;-69
2022/04/17 00:10:09;;;;;;;0.10;0.10;;;4.80;99.90;;;;;;4999126;28;20673;-68
2022/04/17 00:12:37;;;;;;;0.10;0.10;;;4.80;99.90;;;;;;5021073;28;20616;-69
2022/04/17 00:15:05;;;;;;;0.20;0.20;;;4.70;99.90;;;;;;4999603;28;20613;-69
2022/04/17 00:17:33;;;;;;;0.10;0.10;;;;;;;;;;5021477;28;20744;-68
2022/04/17 00:20:00;;;;;;;0.20;0.20;;;;;;;;;;5001502;28;20675;-69
2022/04/17 00:22:28;;;;;;;0.10;0.10;;;;;;;;;;5015101;28;20659;-69
2022/04/17 00:24:55;;;;;;;0.20;0.20;;;;;;;;;;5007462;28;20642;-69
2022/04/17 00:27:22;;;;;;;0.10;0.10;;;;;;;;;;5006588;28;20643;-69
2022/04/17 00:29:50;;;;;;;0.13;0.13;;;;;;;;;;5004705;28;20777;-68
2022/04/17 00:32:17;;;;;;;0.10;0.10;;;;;;;;;;5002534;28;20619;-69
2022/04/17 00:34:45;;;;;;;0.20;0.20;;;;;;;;;;4997607;28;20640;-68
2022/04/17 00:37:12;;;;;;;0.10;0.10;;;;;;;;;;5005351;28;20629;-70
2022/04/17 00:39:40;;;;;;;0.10;0.10;;;;;;;;;;5009000;28;20671;-68
2022/04/17 00:42:09;;;;;;;0.10;0.10;;;;;;;;;;5007085;28;20615;-68
2022/04/17 00:44:37;;;;;;;0.10;0.10;;;;;;;;;;5004939;28;20671;-68
2022/04/17 00:47:05;;;;;;;0.20;0.20;;;;;;;;;;5001251;28;20631;-68
2022/04/17 00:49:32;;;;;;;0.20;0.20;;;;;;;;;;5012077;28;20666;-68
2022/04/17 00:52:01;;;;;;;0.10;0.10;;;;;;;;;;5001966;28;20599;-69
2022/04/17 00:54:30;;;;;;;0.10;0.10;;;;;;;;;;5019727;28;20658;-68
2022/04/17 00:56:57;;;;;;;0.10;0.10;;;;;;;;;;4997890;28;20746;-69
2022/04/17 00:59:25;;;;;;;0.20;0.20;;;;;;;;;;5004447;28;20663;-69
2022/04/17 01:01:53;;;;;;;0.20;0.20;;;;;;;;;;5012477;28;20639;-68
2022/04/17 01:04:20;;;;;;;0.20;0.20;;;;;;;;;;5005166;28;20627;-70
2022/04/17 01:06:47;;;;;;;0.20;0.20;;;;;;;;;;5000339;28;20627;-69
2022/04/17 01:09:16;;;;;;;0.20;0.20;;;4.70;99.90;;;;;;4999932;28;20641;-70
2022/04/17 01:11:44;;;;;;;0.10;0.10;;;4.00;99.90;;;;;;5007324;28;20650;-69
2022/04/17 01:14:12;;;;;;;0.20;0.20;;;4.00;99.90;;;;;;5008507;28;20610;-68
2022/04/17 01:16:40;;;;;;;0.20;0.20;;;4.00;99.90;;;;;;5006773;28;20743;-69
2022/04/17 01:19:12;;;;;;;0.10;0.10;;;3.90;99.90;;;;;;5006197;28;20669;-69
2022/04/17 01:21:41;;;;;;;0.20;0.20;;;3.90;99.90;;;;;;5002273;28;20611;-68
2022/04/17 01:26:57;;;;;;;0.10;0.10;;;3.70;99.90;;;;;;5004204;28;20607;-68
2022/04/17 01:29:25;;;;;;;0.10;0.10;;;3.70;99.90;;;;;;5007845;28;20676;-69
2022/04/17 01:31:52;;;;;;;0.10;0.10;;;3.70;99.90;;;;;;5026212;28;20627;-68
2022/04/17 01:34:20;;;;;;;0.20;0.20;;;3.60;99.90;;;;;;5005571;28;20615;-69
2022/04/17 01:36:49;;;;;;;0.10;0.10;;;3.60;99.90;;;;;;5002759;28;20999;-69
2022/04/17 01:39:17;;;;;;;0.10;0.10;;;3.60;99.90;;;;;;5004157;28;20666;-68
2022/04/17 01:41:44;;;;;;;0.20;0.20;;;3.50;99.90;;;;;;4999394;28;21173;-68
2022/04/17 01:44:11;;;;;;;0.20;0.20;;;3.50;99.90;;;;;;5007631;28;20774;-69
2022/04/17 01:46:38;;;;;;;0.20;0.20;;;3.50;99.90;;;;;;5002748;28;20604;-69
2022/04/17 01:49:05;;;;;;;0.20;0.20;;;;;;;;;;5008868;28;20690;-70
2022/04/17 01:51:38;;;;;;;0.20;0.20;;;;;;;;;;5006589;28;20659;-68
2022/04/17 01:54:08;;;;;;;0.20;0.20;;;;;;;;;;4996996;28;20638;-68
2022/04/17 01:56:35;;;;;;;0.20;0.20;;;;;;;;;;5005508;28;21191;-68
2022/04/17 01:59:04;;;;;;;0.20;0.20;;;;;;;;;;5008854;28;20686;-69
2022/04/17 02:01:32;;;;;;;0.20;0.20;;;;;;;;;;5006464;28;20632;-69
2022/04/17 02:03:58;;;;;;;0.20;0.20;;;3.50;99.90;;;;;;4995799;28;20628;-69
2022/04/17 02:06:25;;;;;;;0.20;0.20;;;3.30;99.90;;;;;;5001922;28;20636;-69
2022/04/17 02:08:52;;;;;;;0.20;0.20;;;3.20;99.90;;;;;;4998985;28;20668;-69
2022/04/17 02:11:22;;;;;;;0.20;0.20;;;3.20;99.90;;;;;;5005589;28;20750;-69
2022/04/17 02:13:50;;;;;;;0.20;0.20;;;3.10;99.90;;;;;;4997872;28;20643;-68
2022/04/17 02:16:18;;;;;;;0.20;0.20;;;3.10;99.90;;;;;;4997249;28;20647;-69
2022/04/17 02:18:45;;;;;;;0.20;0.20;;;3.00;99.90;;;;;;5006299;28;20691;-69
2022/04/17 02:21:13;;;;;;;0.20;0.20;;;3.00;99.90;;;;;;4997720;28;20638;-69
2022/04/17 02:23:40;;;;;;;0.20;0.20;;;3.00;99.90;;;;;;5008315;28;20630;-68
2022/04/17 02:26:08;;;;;;;0.20;0.20;;;3.00;99.90;;;;;;5006058;28;20628;-69
2022/04/17 02:28:36;;;;;;;0.10;0.10;;;;;;;;;;5002187;28;20646;-69
2022/04/17 02:31:04;;;;;;;0.20;0.20;;;;;;;;;;5010967;28;21049;-68
2022/04/17 02:33:31;;;;;;;0.20;0.20;;;;;;;;;;5004157;28;21068;-68
2022/04/17 02:35:59;;;;;;;0.20;0.20;;;;;;;;;;5006494;28;20718;-68
2022/04/17 02:38:26;;;;;;;0.20;0.20;;;3.00;99.90;;;;;;5006570;28;20654;-68
2022/04/17 02:40:54;;;;;;;0.20;0.20;;;;;;;;;;4992217;28;21288;-68
2022/04/17 02:43:21;;;;;;;0.20;0.20;;;;;;;;;;4999258;28;20644;-70
2022/04/17 02:45:51;;;;;;;0.20;0.20;;;;;;;;;;4998075;28;20639;-69
2022/04/17 02:48:18;;;;;;;0.20;0.20;;;2.90;99.90;;;;;;4999303;28;20691;-68
2022/04/17 02:50:45;;;;;;;0.20;0.20;;;2.70;99.90;;;;;;5003747;28;20709;-68
2022/04/17 02:53:12;;;;;;;0.20;0.20;;;2.70;99.90;;;;;;5000341;28;20611;-69
2022/04/17 02:55:39;;;;;;;0.20;0.20;;;2.70;99.90;;;;;;5002832;28;20722;-68
2022/04/17 02:58:06;;;;;;;0.30;0.30;;;2.70;99.90;;;;;;5002299;28;20725;-69
2022/04/17 03:05:35;;;;;;;0.20;0.20;;;;;;;;;;5002445;28;20754;-68
2022/04/17 03:06:09;;;;;;;0.20;0.20;;;;;;;;;;5003008;28;20615;-68
2022/04/17 03:08:36;;;;;;;0.20;0.20;;;;;;;;;;4997517;28;20674;-68
2022/04/17 03:11:03;;;;;;;0.20;0.20;;;;;;;;;;5003870;28;20627;-68
2022/04/17 03:13:31;;;;;;;0.20;0.20;;;;;;;;;;5004676;28;21263;-70
2022/04/17 03:15:59;;;;;;;0.20;0.20;;;;;;;;;;4996927;28;20612;-68
2022/04/17 03:18:27;;;;;;;0.23;0.23;;;;;;;;;;5003836;28;20649;-68
2022/04/17 03:20:54;;;;;;;0.20;0.20;;;;;;;;;;5002912;28;20668;-69
2022/04/17 03:23:22;;;;;;;0.20;0.20;;;;;;;;;;5019290;28;20627;-69
2022/04/17 03:25:49;;;;;;;0.20;0.20;;;;;;;;;;5002589;28;20720;-69
2022/04/17 03:28:16;;;;;;;0.20;0.20;;;;;;;;;;5002807;28;20628;-68
2022/04/17 03:30:43;;;;;;;0.20;0.20;;;;;;;;;;5008440;28;20658;-68
2022/04/17 03:33:12;;;;;;;0.10;0.10;;;;;;;;;;4999715;28;20612;-70
2022/04/17 03:35:41;;;;;;;0.20;0.20;;;;;;;;;;5004699;28;20673;-68
2022/04/17 03:38:09;;;;;;;0.20;0.20;;;;;;;;;;4995733;28;20722;-69
2022/04/17 03:40:37;;;;;;;0.30;0.30;;;;;;;;;;5001727;28;20742;-69
2022/04/17 03:43:04;;;;;;;0.20;0.20;;;;;;;;;;5001061;28;20624;-68
2022/04/17 03:45:32;;;;;;;0.10;0.10;;;;;;;;;;5001465;28;20689;-68
2022/04/17 03:48:00;;;;;;;0.20;0.20;;;;;;;;;;4999824;28;20730;-69
2022/04/17 03:50:27;;;;;;;0.20;0.20;;;;;;;;;;5002565;28;20648;-68
2022/04/17 03:52:56;;;;;;;0.20;0.20;;;;;;;;;;4991930;28;21189;-68
2022/04/17 03:55:23;;;;;;;0.10;0.10;;;;;;;;;;5003029;28;20623;-68
2022/04/17 03:57:51;;;;;;;0.20;0.20;;;;;;;;;;4999640;28;20720;-69
2022/04/17 04:00:18;;;;;;;0.30;0.30;;;;;;;;;;5003228;28;20675;-69
2022/04/17 04:02:51;;;;;;;0.20;0.20;;;;;;;;;;5018247;28;20629;-69
2022/04/17 04:05:19;;;;;;;0.20;0.20;;;;;;;;;;5019387;28;20745;-69
2022/04/17 04:07:47;;;;;;;0.20;0.20;;;;;;;;;;5003529;28;20603;-68
2022/04/17 04:10:17;;;;;;;0.20;0.20;;;;;;;;;;5006104;28;21282;-68
2022/04/17 04:12:44;;;;;;;0.20;0.20;;;;;;;;;;5020803;28;20616;-68
2022/04/17 04:15:11;;;;;;;0.20;0.20;;;;;;;;;;5004946;28;20616;-69
2022/04/17 04:17:39;;;;;;;0.20;0.20;;;;;;;;;;5002112;28;20698;-70
2022/04/17 04:20:07;;;;;;;0.20;0.20;;;;;;;;;;5002994;28;20663;-69
2022/04/17 04:22:34;;;;;;;0.20;0.20;;;;;;;;;;5003025;28;20614;-69
2022/04/17 04:25:02;;;;;;;0.20;0.20;;;;;;;;;;5004854;28;20647;-68
2022/04/17 04:30:16;;;;;;;0.20;0.20;;;;;;;;;;5006583;28;20650;-68
2022/04/17 04:32:53;;;;;;;0.23;0.23;;;;;;;;;;5001369;28;20727;-68
2022/04/17 04:35:20;;;;;;;0.20;0.20;;;;;;;;;;5018345;28;20635;-69
2022/04/17 04:37:47;;;;;;;0.20;0.20;;;1.90;99.90;;;;;;4996048;28;21177;-68
2022/04/17 04:40:15;;;;;;;0.20;0.20;;;1.90;99.90;;;;;;4999391;28;20775;-68
2022/04/17 04:42:43;;;;;;;0.20;0.20;;;2.00;99.90;;;;;;5004026;28;20729;-69
2022/04/17 04:47:55;;;;;;;0.20;0.20;;;2.10;99.90;;;;;;4999426;28;20647;-69
2022/04/17 04:50:21;;;;;;;0.20;0.20;;;2.10;99.90;;;;;;5003692;28;20667;-68
2022/04/17 04:52:48;;;;;;;0.20;0.20;;;2.00;99.90;;;;;;5013836;28;20616;-70
2022/04/17 04:55:15;;;;;;;0.20;0.20;;;2.00;99.90;;;;;;5000885;28;20208;-68
2022/04/17 04:57:43;;;;;;;0.20;0.20;;;2.00;99.90;;;;;;4994515;28;20616;-69
2022/04/17 05:00:11;;;;;;;0.10;0.10;;;2.10;99.90;;;;;;5003601;28;20702;-69
2022/04/17 05:02:38;;;;;;;0.30;0.30;;;2.20;99.90;;;;;;4995256;28;20646;-69
2022/04/17 05:05:06;;;;;;;0.20;0.20;;;2.30;99.90;;;;;;5004914;28;20710;-69
2022/04/17 05:07:33;;;;;;;0.10;0.10;;;2.40;99.90;;;;;;4994644;28;20648;-68
2022/04/17 05:10:00;;;;;;;0.20;0.20;;;2.60;99.90;;;;;;5006377;28;20647;-68
2022/04/17 05:12:28;;;;;;;0.20;0.20;;;2.70;99.90;;;;;;5022645;28;20637;-69
2022/04/17 05:14:56;;;;;;;0.20;0.20;;;3.00;99.90;;;;;;5002063;28;20710;-70
2022/04/17 05:17:24;;;;;;;0.20;0.20;;;3.20;99.90;;;;;;5022617;28;21148;-69
2022/04/17 05:19:51;;;;;;;0.20;0.20;;;3.40;99.90;;;;;;5001943;28;20665;-68
2022/04/17 05:22:20;;;;;;;0.20;0.20;;;3.70;99.90;;;;;;5005812;28;20624;-69
2022/04/17 05:24:48;;;;;;;0.20;0.20;;;3.90;99.90;;;;;;5005002;28;20631;-68
2022/04/17 05:27:15;;;;;;;0.23;0.23;;;4.10;99.90;;;;;;5018629;28;20628;-68
2022/04/17 05:29:42;;;;;;;0.20;0.20;;;4.30;99.90;;;;;;5004260;28;20646;-69
2022/04/17 05:32:11;;;;;;;0.20;0.20;;;4.60;99.90;;;;;;5010011;28;20718;-68
2022/04/17 05:34:38;;;;;;;0.20;0.20;;;4.90;99.90;;;;;;5003229;28;20639;-68
2022/04/17 05:37:06;;;;;;;0.20;0.20;;;5.10;99.90;;;;;;5003654;28;20709;-69
2022/04/17 05:39:33;;;;;;;0.20;0.20;;;5.40;99.90;;;;;;5004149;28;20644;-68
2022/04/17 05:42:01;;;;;;;0.20;0.20;;;5.60;99.90;;;;;;4995045;28;20754;-68
2022/04/17 05:44:29;;;;;;;0.20;0.20;;;5.80;99.90;;;;;;5006398;28;20642;-68
2022/04/17 05:46:59;;;;;;;0.10;0.10;;;6.00;99.90;;;;;;5007345;28;20978;-69
2022/04/17 05:49:28;;;;;;;0.20;0.20;;;6.20;99.90;;;;;;5013798;28;20702;-68
2022/04/17 05:51:57;;;;;;;0.20;0.20;;;6.50;99.90;;;;;;5006262;28;20666;-68
2022/04/17 05:54:26;;;;;;;0.10;0.10;;;;;;;;;;5004332;28;20734;-69
2022/04/17 05:56:53;;;;;;;0.20;0.20;;;6.70;99.90;;;;;;5005581;28;20751;-69
2022/04/17 05:59:20;;;;;;;0.20;0.20;;;;;;;;;;4996841;28;20655;-69
2022/04/17 06:01:48;;;;;;;0.10;0.10;;;;;;;;;;5010918;28;20690;-68
2022/04/17 06:04:15;;;;;;;0.10;0.10;;;;;;;;;;5004853;28;20718;-69
2022/04/17 06:06:44;;;;;;;0.20;0.20;;;;;;;;;;5000667;28;20648;-68
2022/04/17 06:09:11;;;;;;;0.10;0.10;;;7.10;99.90;;;;;;5005464;28;20738;-69
2022/04/17 06:11:38;;;;;;;0.13;0.13;;;7.70;99.90;;;;;;5007779;28;20614;-69
2022/04/17 06:14:05;;;;;;;0.20;0.20;;;;;;;;;;5006780;28;20626;-69
2022/04/17 06:16:33;;;;;;;0.10;0.10;;;;;;;;;;5003423;28;20660;-69
2022/04/17 06:19:00;;;;;;;0.20;0.20;;;;;;;;;;5002837;28;20717;-68
2022/04/17 06:21:28;;;;;;;0.20;0.20;;;7.80;99.90;;;;;;5005677;28;20655;-69
2022/04/17 06:23:56;;;;;;;0.10;0.10;;;8.50;99.90;;;;;;5006170;28;20616;-68
2022/04/17 06:26:23;;;;;;;0.20;0.20;;;8.60;99.90;;;;;;5003334;28;20644;-70
2022/04/17 06:28:51;;;;;;;0.20;0.20;;;8.80;99.90;;;;;;5007356;28;21468;-69
2022/04/17 06:31:17;;;;;;;0.20;0.20;;;8.80;99.90;;;;;;5001107;28;20738;-68
2022/04/17 06:33:44;;;;;;;0.10;0.10;;;9.00;99.90;;;;;;4999805;28;21111;-69
2022/04/17 06:36:11;;;;;;;0.20;0.20;;;9.10;99.90;;;;;;5004311;28;20632;-69
2022/04/17 06:38:38;;;;;;;0.20;0.20;;;9.30;99.90;;;;;;5003145;28;20655;-70
2022/04/17 06:41:07;;;;;;;0.10;0.10;;;9.50;99.90;;;;;;5006427;28;20656;-69
2022/04/17 06:43:36;;;;;;;0.20;0.20;;;9.60;99.90;;;;;;5020538;28;20770;-68
2022/04/17 06:46:03;;;;;;;0.20;0.20;;;9.70;99.90;;;;;;5005907;28;20651;-69
2022/04/17 06:48:30;;;;;;;0.10;0.10;;;9.80;99.90;;;;;;5005030;28;20658;-69
2022/04/17 06:50:57;;;;;;;0.10;0.10;;;9.90;99.90;;;;;;4997815;28;20656;-68
2022/04/17 06:53:25;;;;;;;0.10;0.10;;;9.80;99.90;;;;;;5003267;28;20620;-68
2022/04/17 06:55:52;;;;;;;0.20;0.20;;;9.80;99.90;;;;;;4999011;28;20721;-69
2022/04/17 06:58:21;;;;;;;0.10;0.10;;;9.80;99.90;;;;;;5005369;28;20643;-70
2022/04/17 07:00:49;;;;;;;0.10;0.10;;;9.90;99.90;;;;;;5001759;28;20683;-69
2022/04/17 07:03:16;;;;;;;0.10;0.10;;;;;;;;;;5002385;28;20624;-69
2022/04/17 07:05:44;;;;;;;0.17;0.17;;;10.10;99.90;;;;;;5002212;28;20616;-70
2022/04/17 07:08:11;;;;;;;0.10;0.10;;;10.40;99.90;;;;;;5004203;28;20967;-70
2022/04/17 07:10:39;;;;;;;0.20;0.20;;;;;;;;;;5002758;28;20636;-70
2022/04/17 07:13:06;;;;;;;0.20;0.20;;;;;;;;;;4999185;28;20284;-69
2022/04/17 07:15:35;;;;;;;0.10;0.10;;;;;;;;;;4996433;28;20205;-69
2022/04/17 07:18:02;;;;;;;0.10;0.10;;;;;;;;;;5005508;28;20656;-70
2022/04/17 07:20:30;;;;;;;0.10;0.10;;;;;;;;;;4997971;28;20240;-70
2022/04/17 07:22:58;;;;;;;0.10;0.10;;;;;;;;;;5005217;28;20252;-69
2022/04/17 07:25:25;;;;;;;0.10;0.10;;;;;;;;;;5000694;28;20205;-70
2022/04/17 07:27:53;;;;;;;0.10;0.10;;;10.60;99.90;;;;;;5001705;28;20237;-70
2022/04/17 07:30:22;;;;;;;0.10;0.10;;;11.70;99.90;;;;;;5003161;28;20225;-70
2022/04/17 07:32:52;;;;;;;0.10;0.10;;;11.60;99.90;;;;;;5004256;28;20255;-69
2022/04/17 07:35:20;;;;;;;0.10;0.10;;;;;;;;;;5000764;28;20204;-70
2022/04/17 07:37:51;;;;;;;0.10;0.10;;;11.80;99.90;;;;;;5002989;28;20263;-70
2022/04/17 07:40:20;;;;;;;0.10;0.10;;;;;;;;;;5003838;28;20235;-69
2022/04/17 07:42:49;;;;;;;0.10;0.10;;;;;;;;;;5001235;28;20205;-69
2022/04/17 07:45:17;;;;;;;0.10;0.10;;;;;;;;;;4999816;28;20204;-69
2022/04/17 07:47:45;;;;;;;0.10;0.10;;;;;;;;;;5001618;28;20205;-69
2022/04/17 07:50:14;;;;;;;0.10;0.10;;;;;;;;;;5003764;28;20784;-71
2022/04/17 07:52:42;;;;;;;0.10;0.10;;;;;;;;;;4998641;28;20212;-68
2022/04/17 07:55:11;;;;;;;0.10;0.10;;;;;;;;;;4999020;28;20593;-69
2022/04/17 07:58:01;;;;;;;0.10;0.10;;;;;;;;;;5004108;28;20208;-69
2022/04/17 08:00:31;;;;;;;0.10;0.10;;;;;;;;;;4999657;28;20233;-70
2022/04/17 08:03:09;;;;;;;0.10;0.10;;;;;;;;;;5006065;28;20283;-69
2022/04/17 08:05:39;;;;;;;0.10;0.10;;;;;;;;;;4998945;28;20279;-69
2022/04/17 08:08:08;;;;;;;0.10;0.10;;;;;;;;;;4994629;28;20197;-70
2022/04/17 08:10:35;;;;;;;0.10;0.10;;;;;;;;;;4998096;28;20225;-70
2022/04/17 08:13:03;;;;;;;0.10;0.10;;;;;;;;;;4996677;28;20254;-69
2022/04/17 08:15:31;;;;;;;0.10;0.10;;;;;;;;;;5002333;28;20218;-69
2022/04/17 08:17:58;;;;;;;0.10;0.10;;;;;;;;;;5005529;28;20205;-69
2022/04/17 08:20:25;;;;;;;0.10;0.10;;;12.60;99.90;;;;;;4997131;28;20228;-69
2022/04/17 08:22:54;;;;;;;0.10;0.10;;;;;;;;;;5004234;28;20330;-69
2022/04/17 08:25:21;;;;;;;0.10;0.10;;;12.90;99.90;;;;;;4997995;28;20266;-69
2022/04/17 08:27:49;;;;;;;0.10;0.10;;;13.40;99.90;;;;;;4999141;28;20197;-69
2022/04/17 08:30:21;;;;;;;0.10;0.10;;;13.60;99.90;;;;;;5003528;28;20275;-69
2022/04/17 08:32:48;;;;;;;0.10;0.10;;;13.70;99.90;;;;;;4993729;28;20257;-70
2022/04/17 08:35:16;;;;;;;0.07;0.07;;;13.90;99.90;;;;;;5000374;28;20216;-70
2022/04/17 08:37:43;;;;;;;0.00;0.00;;;;;;;;;;5001736;28;20210;-70
2022/04/17 08:40:13;;;;;;;0.10;0.10;;;;;;;;;;5015211;28;20244;-70
2022/04/17 08:42:41;;;;;;;0.10;0.10;;;;;;;;;;5010192;28;20328;-69
2022/04/17 08:45:09;;;;;;;0.10;0.10;;;;;;;;;;5002227;28;20219;-70
2022/04/17 08:47:37;;;;;;;0.00;0.00;;;;;;;;;;4999439;28;20207;-69
2022/04/17 08:50:06;;;;;;;0.10;0.10;;;;;;;;;;5004501;28;20220;-69
2022/04/17 08:52:34;;;;;;;0.10;0.10;;;;;;;;;;4998756;28;20197;-69
2022/04/17 08:55:02;;;;;;;0.10;0.10;;;;;;;;;;5004222;28;20235;-70
2022/04/17 08:57:32;;;;;;;0.10;0.10;;;;;;;;;;5010657;28;20303;-69
2022/04/17 08:59:59;;;;;;;0.00;0.00;;;;;;;;;;5008706;28;20385;-69
2022/04/17 09:02:26;;;;;;;0.10;0.10;;;;;;;;;;5005441;28;20698;-69
2022/04/17 09:04:54;;;;;;;0.10;0.10;;;;;;;;;;5005220;28;20197;-68
2022/04/17 09:07:21;;;;;;;0.10;0.10;;;;;;;;;;4998696;28;20667;-68
2022/04/17 09:09:50;;;;;;;0.10;0.10;;;;;;;;;;5007265;28;20220;-69
2022/04/17 09:12:18;;;;;;;0.00;0.00;;;;;;;;;;5006440;28;20255;-69
2022/04/17 09:14:47;;;;;;;0.10;0.10;;;;;;;;;;5017702;28;20201;-69
2022/04/17 09:17:15;;;;;;;0.10;0.10;;;;;;;;;;4996109;28;20206;-69
2022/04/17 09:19:43;;;;;;;0.10;0.10;;;;;;;;;;4998425;28;20800;-69
2022/04/17 09:22:10;;;;;;;0.10;0.10;;;;;;;;;;5005245;28;20232;-69
2022/04/17 09:24:39;;;;;;;0.10;0.10;;;;;;;;;;5004832;28;20198;-69
2022/04/17 09:27:06;;;;;;;0.00;0.00;;;;;;;;;;5008079;28;20192;-68
2022/04/17 09:29:35;;;;;;;0.10;0.10;;;;;;;;;;5000768;28;20321;-69
2022/04/17 09:32:05;;;;;;;0.10;0.10;;;;;;;;;;5008921;28;20207;-68
2022/04/17 09:34:43;;;;;;;0.10;0.10;;;;;;;;;;5004299;28;20263;-69
2022/04/17 09:37:13;;;;;;;0.00;0.00;;;;;;;;;;5006090;28;20282;-69
2022/04/17 09:39:41;;;;;;;0.10;0.10;;;;;;;;;;5017384;28;20236;-69
2022/04/17 09:42:09;;;;;;;0.00;0.00;;;;;;;;;;5006857;28;20233;-68
2022/04/17 09:44:37;;;;;;;0.10;0.10;;;;;;;;;;5005175;28;20300;-69
2022/04/17 09:47:06;;;;;;;0.07;0.07;;;;;;;;;;5005666;28;20201;-69
2022/04/17 09:49:49;;;;;;;0.00;0.00;;;;;;;;;;4999521;28;20312;-69
2022/04/17 09:52:16;;;;;;;0.00;0.00;;;;;;;;;;5005495;28;20200;-70
2022/04/17 09:54:44;;;;;;;0.10;0.10;;;;;;;;;;5003416;28;20689;-69
2022/04/17 09:57:12;;;;;;;0.00;0.00;;;;;;;;;;5004365;28;20200;-68
2022/04/17 09:59:39;;;;;;;0.10;0.10;;;;;;;;;;4998190;28;20216;-70
2022/04/17 10:02:08;;;;;;;0.00;0.00;;;;;;;;;;5006849;28;20239;-69
2022/04/17 10:04:37;;;;;;;0.00;0.00;;;;;;;;;;5003459;28;20729;-69
2022/04/17 10:07:05;;;;;;;0.00;0.00;;;;;;;;;;5005045;28;20208;-69
2022/04/17 10:09:33;;;;;;;0.00;0.00;;;;;;;;;;5005076;28;20224;-70
2022/04/17 10:12:00;;;;;;;0.10;0.10;;;;;;;;;;5000440;28;20292;-70
2022/04/17 10:14:29;;;;;;;0.00;0.00;;;;;;;;;;5004654;28;20205;-69
2022/04/17 10:16:58;;;;;;;0.00;0.00;;;;;;;;;;4999020;28;20215;-70
2022/04/17 10:19:27;;;;;;;0.10;0.10;;;;;;;;;;5019954;28;20225;-69
2022/04/17 10:21:55;;;;;;;0.00;0.00;;;;;;;;;;5005530;28;20223;-69
2022/04/17 10:24:22;;;;;;;0.00;0.00;;;;;;;;;;5000743;28;20296;-69
2022/04/17 10:26:51;;;;;;;0.03;0.03;;;;;;;;;;5003637;28;20193;-69
2022/04/17 10:29:23;;;;;;;0.10;0.10;;;;;;;;;;5007600;28;20220;-69
2022/04/17 10:31:59;;;;;;;0.00;0.00;;;;;;;;;;5009683;28;20258;-69
2022/04/17 10:34:41;;;;;;;0.10;0.10;;;;;;;;;;5006309;28;20200;-69
2022/04/17 10:37:21;;;;;;;0.00;0.00;;;;;;;;;;4996565;28;20209;-69
2022/04/17 10:39:50;;;;;;;0.00;0.00;;;;;;;;;;5000463;28;20225;-69
2022/04/17 10:42:17;;;;;;;0.00;0.00;;;;;;;;;;5006387;28;20244;-69
2022/04/17 10:45:01;;;;;;;0.10;0.10;;;;;;;;;;4998093;28;20197;-70
2022/04/17 10:47:29;;;;;;;0.07;0.07;;;;;;;;;;5005647;28;20231;-68
2022/04/17 10:50:00;;;;;;;0.10;0.10;;;;;;;;;;5009639;28;20247;-69
2022/04/17 10:52:29;;;;;;;0.10;0.10;;;;;;;;;;5003805;28;20232;-68
2022/04/17 10:54:57;;;;;;;0.00;0.00;;;;;;;;;;4999859;28;20665;-69
2022/04/17 10:57:25;;;;;;;0.00;0.00;;;;;;;;;;5006101;28;20200;-69
2022/04/17 11:00:13;;;;;;;0.00;0.00;;;;;;;;;;5003142;28;20225;-69
2022/04/17 11:02:41;;;;;;;0.10;0.10;;;;;;;;;;5002987;28;20208;-68
2022/04/17 11:05:11;;;;;;;0.00;0.00;;;;;;;;;;5003384;28;20271;-69
2022/04/17 11:07:39;;;;;;;0.07;0.07;;;;;;;;;;5001737;28;20215;-69
2022/04/17 11:10:09;;;;;;;0.00;0.00;;;;;;;;;;5001793;28;20224;-70
2022/04/17 11:12:46;;;;;;;0.00;0.00;;;;;;;;;;5012380;28;20201;-70
2022/04/17 11:15:28;;;;;;;0.10;0.10;;;;;;;;;;5003929;28;20209;-69
2022/04/17 11:18:00;;;;;;;0.00;0.00;;;;;;;;;;5004978;28;20212;-69
2022/04/17 11:20:30;;;;;;;0.10;0.10;;;;;;;;;;4994120;28;20315;-69
2022/04/17 11:22:57;;;;;;;0.00;0.00;;;;;;;;;;5004014;28;20761;-69
2022/04/17 11:25:27;;;;;;;0.00;0.00;;;;;;;;;;5003172;28;20728;-69
2022/04/17 11:27:55;;;;;;;0.00;0.00;;;;;;;;;;5000729;28;20202;-69
2022/04/17 11:30:34;;;;;;;0.10;0.10;;;;;;;;;;5009099;28;20311;-68
2022/04/17 11:33:07;;;;;;;0.00;0.00;;;;;;;;;;4998882;28;20201;-69
2022/04/17 11:35:36;;;;;;;0.10;0.10;;;;;;;;;;4999511;28;20209;-70
2022/04/17 11:38:04;;;;;;;0.10;0.10;;;;;;;;;;5002067;28;20291;-69
2022/04/17 11:40:33;;;;;;;0.00;0.00;;;;;;;;;;5003109;28;20260;-69
2022/04/17 11:43:07;;;;;;;0.00;0.00;;;;;;;;;;5001199;28;20267;-70
2022/04/17 11:45:35;;;;;;;0.10;0.10;;;;;;;;;;4996245;28;20209;-70
2022/04/17 11:48:07;;;;;;;0.00;0.00;;;;;;;;;;5016164;28;20197;-70
2022/04/17 11:50:34;;;;;;;0.07;0.07;;;;;;;;;;5001157;28;20272;-69
2022/04/17 11:53:04;;;;;;;0.00;0.00;;;;;;;;;;5001558;28;20200;-69
2022/04/17 11:55:34;;;;;;;0.00;0.00;;;;;;;;;;5004555;28;20208;-68
2022/04/17 11:58:02;;;;;;;0.10;0.10;;;;;;;;;;5004439;28;20621;-69
2022/04/17 12:00:30;;;;;;;0.00;0.00;;;;;;;;;;5004049;28;20240;-68
2022/04/17 12:02:59;;;;;;;0.00;0.00;;;;;;;;;;4999244;28;20213;-67
2022/04/17 12:05:28;;;;;;;0.00;0.00;;;;;;;;;;5001927;28;20211;-67
2022/04/17 12:07:58;;;;;;;0.00;0.00;;;;;;;;;;5014596;28;20205;-68
2022/04/17 12:10:27;;;;;;;0.00;0.00;;;;;;;;;;5003578;28;20216;-68
2022/04/17 12:12:55;;;;;;;0.00;0.00;;;;;;;;;;4999653;28;20267;-68
2022/04/17 12:15:23;;;;;;;0.10;0.10;;;;;;;;;;5003091;28;20204;-67
2022/04/17 12:18:01;;;;;;;0.00;0.00;;;;;;;;;;5038386;22;20220;-83
2022/04/17 12:20:29;;;;;;;0.00;0.00;;;;;;;;;;5028029;28;20223;-83
2022/04/17 12:22:56;;;;;;;0.00;0.00;;;;;;;;;;5016463;28;20216;-83
2022/04/17 12:25:24;;;;;;;0.00;0.00;;;;;;;;;;5009516;28;20204;-83
2022/04/17 12:27:54;;;;;;;0.00;0.00;;;;;;;;;;5015543;28;20287;-83
2022/04/17 12:30:26;;;;;;;0.00;0.00;;;;;;;;;;5008561;28;20774;-82
2022/04/17 12:32:59;;;;;;;0.00;0.00;;;;;;;;;;5011022;28;20220;-83
2022/04/17 12:36:02;;;;;;;0.00;0.00;;;;;;;;;;5007449;28;20275;-83
2022/04/17 12:38:29;;;;;;;0.00;0.00;;;;;;;;;;5010645;28;20196;-83
2022/04/17 12:40:58;;;;;;;0.00;0.00;;;;;;;;;;5025740;28;20201;-83
2022/04/17 12:43:29;;;;;;;0.00;0.00;;;;;;;;;;5009272;28;20303;-83
2022/04/17 12:45:58;;;;;;;0.00;0.00;;;;;;;;;;5012795;28;20261;-82
2022/04/17 12:48:26;;;;;;;0.00;0.00;;;;;;;;;;5011006;28;20216;-83
2022/04/17 12:50:58;;;;;;;0.00;0.00;;;;;;;;;;5016637;28;20211;-83
2022/04/17 12:53:28;;;;;;;0.00;0.00;;;;;;;;;;5005447;28;20310;-83
2022/04/17 12:55:55;;;;;;;0.10;0.10;;;;;;;;;;5003922;28;20205;-83
2022/04/17 12:58:23;;;;;;;0.10;0.10;;;;;;;;;;5005089;28;20208;-83
2022/04/17 13:00:59;;;;;;;0.00;0.00;;;;;;;;;;5009172;28;20200;-83
2022/04/17 13:03:36;;;;;;;0.00;0.00;;;;;;;;;;5028694;28;20232;-83
2022/04/17 13:06:05;;;;;;;0.00;0.00;;;;;;;;;;5005273;28;20201;-82
2022/04/17 13:08:33;;;;;;;0.00;0.00;;;;;;;;;;5014186;28;20204;-83
2022/04/17 13:11:00;;;;;;;0.00;0.00;;;;;;;;;;5006289;28;20204;-83
2022/04/17 13:13:38;;;;;;;0.00;0.00;;;;;;;;;;5009257;28;20220;-83
2022/04/17 13:16:09;;;;;;;0.03;0.03;;;;;;;;;;5011283;28;20200;-83
2022/04/17 13:18:36;;;;;;;0.07;0.07;;;;;;;;;;5011696;28;20212;-83
2022/04/17 13:21:04;;;;;;;0.00;0.00;;;;;;;;;;5009987;28;20205;-82
2022/04/17 13:23:34;;;;;;;0.00;0.00;;;;;;;;;;5009491;28;20232;-83
2022/04/17 13:26:02;;;;;;;0.00;0.00;;;;;;;;;;5008170;28;20213;-83
2022/04/17 13:28:31;;;;;;;0.00;0.00;;;;;;;;;;5011385;28;20200;-82
2022/04/17 13:30:59;;;;;;;0.00;0.00;;;;;;;;;;5011252;28;20197;-82
2022/04/17 13:33:28;;;;;;;0.00;0.00;;;;;;;;;;5005049;28;20228;-82
2022/04/17 13:35:55;;;;;;;0.00;0.00;;;;;;;;;;5007764;28;20201;-83
2022/04/17 13:38:24;;;;;;;0.00;0.00;;;;;;;;;;5014477;28;20291;-83
2022/04/17 13:40:53;;;;;;;0.00;0.00;;;;;;;;;;5019907;28;20223;-84
2022/04/17 13:43:21;;;;;;;0.00;0.00;;;;;;;;;;5012918;28;20232;-83
2022/04/17 13:45:49;;;;;;;0.00;0.00;;;;;;;;;;5012196;28;20231;-83
2022/04/17 13:48:16;;;;;;;0.00;0.00;;;;;;;;;;5015165;28;20249;-83
2022/04/17 13:50:45;;;;;;;0.00;0.00;;;;;;;;;;5012248;28;20206;-83
2022/04/17 13:53:18;;;;;;;0.00;0.00;;;;;;;;;;5012269;28;20225;-83
2022/04/17 13:55:45;;;;;;;0.00;0.00;;;;;;;;;;5009235;28;20205;-83
2022/04/17 13:58:16;;;;;;;0.00;0.00;;;;;;;;;;5007173;28;20201;-84
2022/04/17 14:00:44;;;;;;;0.00;0.00;;;;;;;;;;5004555;28;20205;-83
2022/04/17 14:03:13;;;;;;;0.00;0.00;;;;;;;;;;5008505;28;20292;-83
2022/04/17 14:05:40;;;;;;;0.00;0.00;;;;;;;;;;5000847;28;20246;-83
2022/04/17 14:08:10;;;;;;;0.00;0.00;;;;;;;;;;5006070;28;20200;-83
2022/04/17 14:10:38;;;;;;;0.00;0.00;;;;;;;;;;4999035;28;20200;-83
2022/04/17 14:13:09;;;;;;;0.00;0.00;;;;;;;;;;5014743;28;20331;-83
2022/04/17 14:15:36;;;;;;;0.00;0.00;;;;;;;;;;5009746;28;20207;-83
2022/04/17 14:18:04;;;;;;;0.00;0.00;;;;;;;;;;4996877;28;20216;-83
2022/04/17 14:20:32;;;;;;;0.00;0.00;;;;;;;;;;5015415;28;20219;-83
2022/04/17 14:22:59;;;;;;;0.00;0.00;;;;;;;;;;5006613;28;20224;-83
2022/04/17 14:25:28;;;;;;;0.10;0.10;;;;;;;;;;5005716;28;20212;-83
2022/04/17 14:27:55;;;;;;;0.00;0.00;;;;;;;;;;5026120;28;20230;-83